Time,TemperatureF,DewpointF,PressureIn,WindDirection,WindDirectionDegrees,WindSpeedMPH,WindSpeedGustMPH,Humidity,HourlyPrecipIn,Conditions,Clouds,dailyrainin,SoftwareType,DateUTC
2013-03-03 00:12:00,38.3,26.0,29.99,SSW,204,1.0,1.0,62,0.00,,,0.00,weatherlink.com 1.10,2013-03-03 07:12:00,
2013-03-03 00:27:00,38.8,26.0,29.98,SSW,204,0.0,2.0,60,0.00,,,0.00,weatherlink.com 1.10,2013-03-03 07:27:00,
2013-03-03 00:42:00,38.9,25.0,29.97,SSW,204,0.0,1.0,58,0.00,,,0.00,weatherlink.com 1.10,2013-03-03 07:42:00,
2013-03-03 00:57:00,38.8,25.0,29.96,SSW,204,0.0,2.0,59,0.00,,,0.00,weatherlink.com 1.10,2013-03-03 07:57:00,
2013-03-03 01:12:00,38.2,25.0,29.95,SSW,204,0.0,0.0,60,0.00,,,0.00,weatherlink.com 1.10,2013-03-03 08:12:00,
2013-03-03 01:27:00,38.2,24.0,29.94,WNW,297,2.0,4.0,58,0.00,,,0.00,weatherlink.com 1.10,2013-03-03 08:27:00,
2013-03-03 01:42:00,39.9,23.0,29.93,SSW,197,3.0,4.0,52,0.00,,,0.00,weatherlink.com 1.10,2013-03-03 08:42:00,
2013-03-03 01:57:00,40.8,23.0,29.91,SSW,206,0.0,2.0,49,0.00,,,0.00,weatherlink.com 1.10,2013-03-03 08:57:00,
2013-03-03 02:12:00,40.1,23.0,29.91,SSW,206,0.0,1.0,51,0.00,,,0.00,weatherlink.com 1.10,2013-03-03 09:12:00,
2013-03-03 02:27:00,39.8,21.0,29.89,SSW,202,2.0,5.0,48,0.00,,,0.00,weatherlink.com 1.10,2013-03-03 09:27:00,
2013-03-03 02:42:00,41.3,22.0,29.89,West,265,0.0,4.0,47,0.00,,,0.00,weatherlink.com 1.10,2013-03-03 09:42:00,
2013-03-03 02:57:00,40.3,23.0,29.88,West,267,0.0,2.0,50,0.00,,,0.00,weatherlink.com 1.10,2013-03-03 09:57:00,
2013-03-03 03:12:00,39.6,23.0,29.87,West,267,0.0,3.0,51,0.00,,,0.00,weatherlink.com 1.10,2013-03-03 10:12:00,
2013-03-03 03:27:00,38.6,23.0,29.86,West,267,1.0,2.0,53,0.00,,,0.00,weatherlink.com 1.10,2013-03-03 10:27:00,
2013-03-03 03:42:00,37.6,22.0,29.86,SSE,159,2.0,6.0,54,0.00,,,0.00,weatherlink.com 1.10,2013-03-03 10:42:00,
2013-03-03 03:57:00,39.4,21.0,29.85,NNW,327,3.0,3.0,48,0.00,,,0.00,weatherlink.com 1.10,2013-03-03 10:57:00,
2013-03-03 04:12:00,39.5,21.0,29.85,NW,308,2.0,5.0,47,0.00,,,0.00,weatherlink.com 1.10,2013-03-03 11:12:00,
2013-03-03 04:27:00,38.2,20.0,29.83,West,266,0.0,2.0,49,0.00,,,0.00,weatherlink.com 1.10,2013-03-03 11:27:00,
2013-03-03 04:42:00,36.8,21.0,29.83,WNW,296,1.0,2.0,53,0.00,,,0.00,weatherlink.com 1.10,2013-03-03 11:42:00,
2013-03-03 04:58:00,36.0,20.0,29.82,WNW,296,0.0,2.0,53,0.00,,,0.00,weatherlink.com 1.10,2013-03-03 11:58:00,
2013-03-03 05:13:00,35.4,21.0,29.82,WNW,294,0.0,3.0,57,0.00,,,0.00,weatherlink.com 1.10,2013-03-03 12:13:00,
2013-03-03 05:28:00,35.5,21.0,29.81,WNW,294,4.0,5.0,57,0.00,,,0.00,weatherlink.com 1.10,2013-03-03 12:28:00,
2013-03-03 05:43:00,38.3,20.0,29.81,SW,218,2.0,4.0,48,0.00,,,0.00,weatherlink.com 1.10,2013-03-03 12:43:00,
2013-03-03 05:58:00,39.6,20.0,29.80,SW,221,1.0,3.0,45,0.00,,,0.00,weatherlink.com 1.10,2013-03-03 12:58:00,
2013-03-03 06:13:00,41.3,18.0,29.80,WSW,249,1.0,4.0,40,0.00,,,0.00,weatherlink.com 1.10,2013-03-03 13:13:00,
2013-03-03 06:28:00,40.0,18.0,29.80,West,264,1.0,5.0,42,0.00,,,0.00,weatherlink.com 1.10,2013-03-03 13:28:00,
2013-03-03 06:43:00,39.3,19.0,29.79,West,269,3.0,3.0,44,0.00,,,0.00,weatherlink.com 1.10,2013-03-03 13:43:00,
2013-03-03 06:58:00,38.0,19.0,29.79,West,265,1.0,3.0,47,0.00,,,0.00,weatherlink.com 1.10,2013-03-03 13:58:00,
2013-03-03 07:13:00,37.7,20.0,29.80,WNW,300,0.0,5.0,49,0.00,,,0.00,weatherlink.com 1.10,2013-03-03 14:13:00,
2013-03-03 07:28:00,38.3,21.0,29.80,WNW,296,1.0,3.0,50,0.00,,,0.00,weatherlink.com 1.10,2013-03-03 14:28:00,
2013-03-03 07:43:00,39.5,21.0,29.80,WNW,292,0.0,2.0,48,0.00,,,0.00,weatherlink.com 1.10,2013-03-03 14:43:00,
2013-03-03 07:58:00,43.3,23.0,29.78,WSW,248,3.0,6.0,44,0.00,,,0.00,weatherlink.com 1.10,2013-03-03 14:58:00,
2013-03-03 08:13:00,45.8,20.0,29.78,WSW,250,2.0,6.0,36,0.00,,,0.00,weatherlink.com 1.10,2013-03-03 15:13:00,
2013-03-03 08:28:00,45.8,19.0,29.78,SW,222,2.0,3.0,35,0.00,,,0.00,weatherlink.com 1.10,2013-03-03 15:28:00,
2013-03-03 08:43:00,47.2,19.0,29.78,SW,225,0.0,4.0,33,0.00,,,0.00,weatherlink.com 1.10,2013-03-03 15:43:00,
2013-03-03 09:13:00,48.2,19.0,29.77,SSW,203,0.0,4.0,32,0.00,,,0.00,weatherlink.com 1.10,2013-03-03 16:13:00,
2013-03-03 09:43:00,51.7,19.0,29.75,SW,217,2.0,4.0,28,0.00,,,0.00,weatherlink.com 1.10,2013-03-03 16:43:00,
2013-03-03 09:58:00,52.5,19.0,29.75,SW,236,3.0,6.0,27,0.00,,,0.00,weatherlink.com 1.10,2013-03-03 16:58:00,
2013-03-03 10:13:00,54.7,20.0,29.73,South,173,4.0,6.0,26,0.00,,,0.00,weatherlink.com 1.10,2013-03-03 17:13:00,
2013-03-03 10:28:00,55.5,19.0,29.72,SE,139,0.0,3.0,24,0.00,,,0.00,weatherlink.com 1.10,2013-03-03 17:28:00,
2013-03-03 10:43:00,56.0,19.0,29.73,SSW,196,3.0,5.0,24,0.00,,,0.00,weatherlink.com 1.10,2013-03-03 17:43:00,
2013-03-03 10:59:00,56.8,17.0,29.71,SSW,204,0.0,5.0,21,0.00,,,0.00,weatherlink.com 1.10,2013-03-03 17:59:00,
2013-03-03 11:14:00,56.9,16.0,29.71,SSW,213,1.0,5.0,20,0.00,,,0.00,weatherlink.com 1.10,2013-03-03 18:14:00,
2013-03-03 11:44:00,57.3,17.0,29.69,South,185,0.0,6.0,21,0.00,,,0.00,weatherlink.com 1.10,2013-03-03 18:44:00,
2013-03-03 11:59:00,57.3,16.0,29.67,South,188,1.0,3.0,20,0.00,,,0.00,weatherlink.com 1.10,2013-03-03 18:59:00,
2013-03-03 12:14:00,57.1,16.0,29.66,SSW,200,2.0,6.0,20,0.00,,,0.00,weatherlink.com 1.10,2013-03-03 19:14:00,
2013-03-03 12:29:00,57.7,17.0,29.65,SSW,213,1.0,6.0,20,0.00,,,0.00,weatherlink.com 1.10,2013-03-03 19:29:00,
2013-03-03 12:44:00,59.2,17.0,29.63,SSW,194,0.0,4.0,19,0.00,,,0.00,weatherlink.com 1.10,2013-03-03 19:44:00,
2013-03-03 12:59:00,60.7,17.0,29.62,SE,131,3.0,6.0,18,0.00,,,0.00,weatherlink.com 1.10,2013-03-03 19:59:00,
2013-03-03 13:14:00,60.5,17.0,29.61,South,175,0.0,4.0,18,0.00,,,0.00,weatherlink.com 1.10,2013-03-03 20:14:00,
2013-03-03 13:29:00,60.7,15.0,29.60,SE,128,4.0,5.0,17,0.00,,,0.00,weatherlink.com 1.10,2013-03-03 20:29:00,
2013-03-03 13:44:00,61.0,17.0,29.60,SE,130,1.0,5.0,18,0.00,,,0.00,weatherlink.com 1.10,2013-03-03 20:44:00,
2013-03-03 13:59:00,61.1,14.0,29.58,East,93,1.0,5.0,16,0.00,,,0.00,weatherlink.com 1.10,2013-03-03 20:59:00,
2013-03-03 14:14:00,60.7,15.0,29.58,East,81,1.0,5.0,17,0.00,,,0.00,weatherlink.com 1.10,2013-03-03 21:14:00,
2013-03-03 14:29:00,61.1,17.0,29.58,East,90,5.0,7.0,18,0.00,,,0.00,weatherlink.com 1.10,2013-03-03 21:29:00,
2013-03-03 14:44:00,60.9,16.0,29.58,SE,138,0.0,4.0,17,0.00,,,0.00,weatherlink.com 1.10,2013-03-03 21:44:00,
2013-03-03 14:59:00,60.9,16.0,29.58,East,80,0.0,3.0,17,0.00,,,0.00,weatherlink.com 1.10,2013-03-03 21:59:00,
2013-03-03 15:14:00,60.9,17.0,29.57,East,89,1.0,5.0,18,0.00,,,0.00,weatherlink.com 1.10,2013-03-03 22:14:00,
2013-03-03 15:29:00,61.6,16.0,29.57,SE,125,2.0,5.0,17,0.00,,,0.00,weatherlink.com 1.10,2013-03-03 22:29:00,
2013-03-03 15:44:00,61.6,16.0,29.57,ESE,109,1.0,3.0,17,0.00,,,0.00,weatherlink.com 1.10,2013-03-03 22:44:00,
2013-03-03 15:59:00,61.1,17.0,29.57,SE,124,2.0,7.0,18,0.00,,,0.00,weatherlink.com 1.10,2013-03-03 22:59:00,
2013-03-03 16:14:00,60.7,18.0,29.57,ESE,119,0.0,2.0,19,0.00,,,0.00,weatherlink.com 1.10,2013-03-03 23:14:00,
2013-03-03 16:29:00,60.5,18.0,29.58,SSE,148,0.0,2.0,19,0.00,,,0.00,weatherlink.com 1.10,2013-03-03 23:29:00,
2013-03-03 16:44:00,60.9,17.0,29.58,WSW,252,1.0,6.0,18,0.00,,,0.00,weatherlink.com 1.10,2013-03-03 23:44:00,
2013-03-03 16:59:00,59.7,17.0,29.58,West,281,8.0,21.0,19,0.00,,,0.00,weatherlink.com 1.10,2013-03-03 23:59:00,
2013-03-03 17:14:00,57.9,18.0,29.57,NW,320,7.0,16.0,21,0.00,,,0.00,weatherlink.com 1.10,2013-03-04 00:14:00,
2013-03-03 17:29:00,56.7,19.0,29.57,WNW,290,6.0,9.0,23,0.00,,,0.00,weatherlink.com 1.10,2013-03-04 00:29:00,
2013-03-03 17:44:00,55.6,20.0,29.59,WNW,294,3.0,11.0,25,0.00,,,0.00,weatherlink.com 1.10,2013-03-04 00:44:00,
2013-03-03 18:00:00,55.6,18.0,29.60,WNW,288,9.0,16.0,23,0.00,,,0.00,weatherlink.com 1.10,2013-03-04 01:00:00,
2013-03-03 18:15:00,55.0,20.0,29.61,NW,322,3.0,14.0,25,0.00,,,0.00,weatherlink.com 1.10,2013-03-04 01:15:00,
2013-03-03 18:29:00,54.3,20.0,29.62,WNW,294,1.0,9.0,26,0.00,,,0.00,weatherlink.com 1.10,2013-03-04 01:29:00,
2013-03-03 18:44:00,52.7,21.0,29.63,WNW,291,11.0,11.0,29,0.00,,,0.00,weatherlink.com 1.10,2013-03-04 01:44:00,
2013-03-03 18:59:00,52.6,22.0,29.63,North,5,3.0,13.0,30,0.00,,,0.00,weatherlink.com 1.10,2013-03-04 01:59:00,
2013-03-03 19:14:00,52.4,22.0,29.63,WSW,255,5.0,13.0,31,0.00,,,0.00,weatherlink.com 1.10,2013-03-04 02:14:00,
2013-03-03 19:29:00,52.2,22.0,29.63,WNW,295,4.0,15.0,31,0.00,,,0.00,weatherlink.com 1.10,2013-03-04 02:29:00,
2013-03-03 19:44:00,51.0,23.0,29.62,NNE,14,3.0,6.0,33,0.00,,,0.00,weatherlink.com 1.10,2013-03-04 02:44:00,
2013-03-03 19:59:00,50.5,23.0,29.62,NW,319,3.0,6.0,34,0.00,,,0.00,weatherlink.com 1.10,2013-03-04 02:59:00,
2013-03-03 20:14:00,50.1,23.0,29.61,NW,306,2.0,10.0,35,0.00,,,0.00,weatherlink.com 1.10,2013-03-04 03:14:00,
2013-03-03 20:29:00,50.0,23.0,29.62,WNW,300,2.0,9.0,35,0.00,,,0.00,weatherlink.com 1.10,2013-03-04 03:29:00,
2013-03-03 20:44:00,49.0,24.0,29.61,NW,325,2.0,6.0,37,0.00,,,0.00,weatherlink.com 1.10,2013-03-04 03:44:00,
2013-03-03 20:59:00,48.7,24.0,29.61,NNW,338,2.0,5.0,38,0.00,,,0.00,weatherlink.com 1.10,2013-03-04 03:59:00,
2013-03-03 21:14:00,49.1,23.0,29.61,West,269,4.0,11.0,36,0.00,,,0.00,weatherlink.com 1.10,2013-03-04 04:14:00,
2013-03-03 21:29:00,48.8,22.0,29.61,WSW,239,0.0,3.0,35,0.00,,,0.00,weatherlink.com 1.10,2013-03-04 04:29:00,
2013-03-03 21:44:00,47.2,23.0,29.60,West,262,0.0,2.0,38,0.00,,,0.00,weatherlink.com 1.10,2013-03-04 04:44:00,
2013-03-03 21:59:00,44.8,23.0,29.61,SW,219,0.0,6.0,42,0.00,,,0.00,weatherlink.com 1.10,2013-03-04 04:59:00,
2013-03-03 22:14:00,45.7,22.0,29.61,WSW,240,1.0,3.0,40,0.00,,,0.00,weatherlink.com 1.10,2013-03-04 05:14:00,
2013-03-03 22:29:00,45.7,22.0,29.60,WSW,240,0.0,1.0,40,0.00,,,0.00,weatherlink.com 1.10,2013-03-04 05:29:00,
2013-03-03 22:44:00,43.9,22.0,29.60,WSW,245,0.0,3.0,42,0.00,,,0.00,weatherlink.com 1.10,2013-03-04 05:44:00,
2013-03-03 22:59:00,43.0,22.0,29.59,SW,219,0.0,2.0,44,0.00,,,0.00,weatherlink.com 1.10,2013-03-04 05:59:00,
2013-03-03 23:14:00,41.9,23.0,29.60,West,263,1.0,2.0,47,0.00,,,0.00,weatherlink.com 1.10,2013-03-04 06:14:00,
2013-03-03 23:29:00,41.5,23.0,29.60,West,263,0.0,1.0,48,0.00,,,0.00,weatherlink.com 1.10,2013-03-04 06:29:00,
2013-03-03 23:44:00,39.8,23.0,29.60,West,263,0.0,1.0,52,0.00,,,0.00,weatherlink.com 1.10,2013-03-04 06:44:00,
2013-03-03 23:59:00,38.4,23.0,29.59,South,178,2.0,2.0,54,0.00,,,0.00,weatherlink.com 1.10,2013-03-04 06:59:00,